Speegleville, Texas
Current Conditions -  °F | °C
As of 8:51 PM on Friday 21 Nov 2014 (Local Time) from KACT Reporting Station
Light Rain Light Rain  
Wind Chill: 66°   Ceiling: 800
Heat Index: 66°   Visibility: 7mi
Dew Point: 63°   Wind: 17mph
Humidity: 90%   Direction: 150°SSE
Pressure: 30.07"   Gusts: NA
Location:  31.5356°N, 97.1921°W
Report Text: KACT 220251Z 15015KT 7SM -RA OVC008 19/17 A3007 RMK AO2 RAB49 SLP179 P0000 60000 T01890172 53011
Loading
Personal Weather Stations






























Interactive Weather Map New forecast layout! Learn more

10-Day Weather Forecast

Advertisements
Track Severe Weather on mobile